Time;durP1;ratioP1;P1;durP2;ratioP2;P2;SDS_P1;SDS_P2;PMS_P1;PMS_P2;Temp;Humidity;BMP_temperature;BMP_pressure;BME280_temperature;BME280_humidity;BME280_pressure;Samples;Min_cycle;Max_cycle;Signal;HPM_P1;HPM_P2
2021/09/22 00:02:09;;;;;;;3.03;2.83;;;;;;;;;;5106816;28;20549;-59
2021/09/22 00:04:36;;;;;;;3.33;3.08;;;;;;;;;;5103507;28;20903;-59
2021/09/22 00:07:02;;;;;;;4.37;3.10;;;;;;;;;;5088617;28;20241;-59
2021/09/22 00:09:29;;;;;;;3.37;3.00;;;;;;;;;;5094696;28;20642;-59
2021/09/22 00:11:55;;;;;;;3.47;3.17;;;;;;;;;;5081009;28;20231;-59
2021/09/22 00:14:21;;;;;;;3.07;2.77;;;;;;;;;;5069353;28;20539;-59
2021/09/22 00:16:47;;;;;;;3.03;2.83;;;;;;;;;;5083919;28;20635;-59
2021/09/22 00:19:13;;;;;;;3.00;2.80;;;;;;;;;;5072090;28;20202;-59
2021/09/22 00:21:39;;;;;;;6.67;4.37;;;;;;;;;;5068425;28;20186;-59
2021/09/22 00:24:06;;;;;;;2.90;2.70;;;;;;;;;;5051436;28;20187;-59
2021/09/22 00:26:32;;;;;;;2.97;2.77;;;;;;;;;;5080241;28;20664;-59
2021/09/22 00:28:58;;;;;;;3.47;3.17;;;;;;;;;;5071586;28;20195;-59
2021/09/22 00:31:24;;;;;;;3.03;2.83;;;;;;;;;;5076319;28;20645;-59
2021/09/22 00:33:50;;;;;;;3.17;2.97;;;;;;;;;;5070852;28;20184;-59
2021/09/22 00:36:16;;;;;;;3.40;3.10;;;;;;;;;;5059436;28;20168;-59
2021/09/22 00:38:42;;;;;;;3.17;2.87;;;;;;;;;;5084414;28;20172;-59
2021/09/22 00:41:09;;;;;;;3.10;2.87;;;;;;;;;;5057186;28;20662;-58
2021/09/22 00:43:35;;;;;;;3.10;2.90;;;;;;;;;;5072911;28;20245;-59
2021/09/22 00:46:04;;;;;;;3.60;2.97;;;;;;;;;;5080409;28;20653;-59
2021/09/22 00:48:37;;;;;;;3.07;2.87;;;;;;;;;;5055945;28;20192;-59
2021/09/22 00:51:04;;;;;;;5.67;2.83;;;;;;;;;;5056336;28;20214;-59
2021/09/22 00:53:31;;;;;;;3.20;2.90;;;;;;;;;;5077217;28;20206;-59
2021/09/22 00:55:57;;;;;;;3.20;2.90;;;;;;;;;;5074063;28;20624;-59
2021/09/22 00:58:24;;;;;;;3.10;2.90;;;;;;;;;;5072139;28;20523;-59
2021/09/22 01:00:50;;;;;;;3.30;3.00;;;;;;;;;;5078663;28;20181;-59
2021/09/22 01:03:16;;;;;;;3.30;3.00;;;;;;;;;;5073316;28;20177;-59
2021/09/22 01:05:42;;;;;;;3.07;2.87;;;;;;;;;;5074710;28;20184;-59
2021/09/22 01:08:10;;;;;;;3.00;2.80;;;;;;;;;;5056001;28;20194;-59
2021/09/22 01:10:37;;;;;;;3.17;2.87;;;;;;;;;;5069507;28;20185;-59
2021/09/22 01:13:03;;;;;;;3.10;2.90;;;;;;;;;;5096861;28;20238;-59
2021/09/22 01:15:30;;;;;;;3.90;3.13;;;;;;;;;;5096746;28;20256;-59
2021/09/22 01:17:57;;;;;;;2.83;2.63;;;;;;;;;;5074467;28;20240;-59
2021/09/22 01:20:23;;;;;;;3.73;3.00;;;;;;;;;;5103592;28;20240;-59
2021/09/22 01:22:49;;;;;;;2.80;2.60;;;;;;;;;;5082755;28;20194;-59
2021/09/22 01:25:15;;;;;;;3.10;2.80;;;;;;;;;;5092683;28;20648;-58
2021/09/22 01:27:48;;;;;;;3.10;2.90;;;;;;;;;;5099879;28;20184;-59
2021/09/22 01:30:15;;;;;;;5.10;4.80;;;;;;;;;;5062944;28;20653;-59
2021/09/22 01:32:54;;;;;;;3.20;3.00;;;;;;;;;;5106738;28;20225;-58
2021/09/22 01:35:21;;;;;;;3.00;2.80;;;;;;;;;;5075905;28;21050;-58
2021/09/22 01:37:47;;;;;;;3.47;2.93;;;;;;;;;;5094408;28;20702;-59
2021/09/22 01:40:13;;;;;;;3.40;3.10;;;;;;;;;;5092187;28;20217;-59
2021/09/22 01:42:39;;;;;;;3.23;2.93;;;;;;;;;;5090621;28;20172;-59
2021/09/22 01:45:07;;;;;;;3.13;2.93;;;;;;;;;;5092253;28;20221;-58
2021/09/22 01:47:33;;;;;;;2.80;2.60;;;;;;;;;;5098323;28;20175;-59
2021/09/22 01:50:00;;;;;;;3.10;2.80;;;;;;;;;;5094164;28;20179;-59
2021/09/22 01:52:26;;;;;;;3.10;2.80;;;;;;;;;;5092198;28;20206;-59
2021/09/22 01:54:52;;;;;;;3.20;2.97;;;;;;;;;;5088576;28;20254;-58
2021/09/22 01:57:18;;;;;;;3.33;3.07;;;;;;;;;;5092096;28;20213;-58
2021/09/22 01:59:44;;;;;;;4.80;3.30;;;;;;;;;;5074544;28;20225;-59
2021/09/22 02:02:10;;;;;;;3.10;2.80;;;;;;;;;;5090086;28;20180;-58
2021/09/22 02:04:36;;;;;;;3.50;3.20;;;;;;;;;;5075390;28;20184;-58
2021/09/22 02:07:02;;;;;;;3.73;3.33;;;;;;;;;;5091389;28;20255;-59
2021/09/22 02:09:28;;;;;;;3.40;3.10;;;;;;;;;;5100528;28;20186;-58
2021/09/22 02:11:54;;;;;;;2.90;2.70;;;;;;;;;;5094345;28;20228;-58
2021/09/22 02:14:20;;;;;;;3.63;3.33;;;;;;;;;;5091259;28;20530;-58
2021/09/22 02:16:46;;;;;;;2.77;2.57;;;;;;;;;;5094871;28;20526;-59
2021/09/22 02:19:13;;;;;;;3.20;2.90;;;;;;;;;;5092665;28;20176;-58
2021/09/22 02:21:39;;;;;;;3.73;2.97;;;;;;;;;;5091038;28;20282;-59
2021/09/22 02:24:05;;;;;;;2.90;2.70;;;;;;;;;;5090528;28;20176;-58
2021/09/22 02:26:31;;;;;;;3.30;2.97;;;;;;;;;;5090466;28;20195;-58
2021/09/22 02:28:57;;;;;;;4.37;2.83;;;;;;;;;;5108167;28;20698;-58
2021/09/22 02:31:24;;;;;;;3.47;3.13;;;;;;;;;;5073608;28;20243;-59
2021/09/22 02:33:50;;;;;;;3.10;2.80;;;;;;;;;;5091795;28;20179;-59
2021/09/22 02:36:17;;;;;;;3.47;3.07;;;;;;;;;;5098425;28;20188;-58
2021/09/22 02:38:43;;;;;;;3.30;3.00;;;;;;;;;;5091448;28;20182;-58
2021/09/22 02:41:09;;;;;;;4.60;2.90;;;;;;;;;;5094463;28;20179;-59
2021/09/22 02:43:35;;;;;;;3.00;2.70;;;;;;;;;;5106271;28;20182;-59
2021/09/22 02:46:01;;;;;;;3.43;2.77;;;;;;;;;;5061102;28;20183;-58
2021/09/22 02:48:28;;;;;;;3.10;2.80;;;;;;;;;;5091127;28;20176;-58
2021/09/22 02:50:54;;;;;;;3.33;3.03;;;;;;;;;;5095323;28;20184;-58
2021/09/22 02:53:20;;;;;;;3.30;3.00;;;;;;;;;;5090147;28;20677;-58
2021/09/22 02:55:46;;;;;;;2.90;2.60;;;;;;;;;;5090156;28;20172;-58
2021/09/22 02:58:12;;;;;;;3.13;2.83;;;;;;;;;;5091258;28;20194;-58
2021/09/22 03:00:39;;;;;;;4.80;3.30;;;;;;;;;;5084339;28;20225;-58
2021/09/22 03:03:05;;;;;;;2.83;2.63;;;;;;;;;;5095183;28;20176;-58
2021/09/22 03:05:31;;;;;;;3.10;2.90;;;;;;;;;;5091138;28;20241;-58
2021/09/22 03:07:57;;;;;;;3.10;2.80;;;;;;;;;;5089975;28;20570;-58
2021/09/22 03:10:23;;;;;;;3.80;2.87;;;;;;;;;;5091549;28;20184;-58
2021/09/22 03:12:49;;;;;;;4.17;3.33;;;;;;;;;;5093914;28;20787;-59
2021/09/22 03:15:16;;;;;;;3.40;3.10;;;;;;;;;;5090717;28;20506;-58
2021/09/22 03:17:42;;;;;;;3.23;2.93;;;;;;;;;;5094077;28;20164;-59
2021/09/22 03:20:08;;;;;;;3.63;3.13;;;;;;;;;;5081930;28;20187;-58
2021/09/22 03:22:34;;;;;;;3.60;2.90;;;;;;;;;;5090515;28;20666;-59
2021/09/22 03:25:00;;;;;;;3.47;3.17;;;;;;;;;;5088830;28;20208;-59
2021/09/22 03:27:26;;;;;;;4.47;4.07;;;;;;;;;;5090452;28;20557;-58
2021/09/22 03:29:52;;;;;;;4.17;3.53;;;;;;;;;;5097435;28;20175;-59
2021/09/22 03:32:18;;;;;;;3.03;2.83;;;;;;;;;;5088639;28;20306;-59
2021/09/22 03:34:44;;;;;;;3.43;3.13;;;;;;;;;;5085515;28;20191;-58
2021/09/22 03:37:10;;;;;;;3.92;3.42;;;;;;;;;;5089113;28;20397;-58
2021/09/22 03:39:36;;;;;;;4.13;3.47;;;;;;;;;;5088348;28;20211;-59
2021/09/22 03:42:02;;;;;;;3.30;3.00;;;;;;;;;;5088448;28;20253;-59
2021/09/22 03:44:29;;;;;;;4.13;3.50;;;;;;;;;;5098021;28;20189;-58
2021/09/22 03:46:55;;;;;;;4.10;3.27;;;;;;;;;;5070438;28;20190;-58
2021/09/22 03:49:21;;;;;;;3.57;3.27;;;;;;;;;;5093741;28;20171;-59
2021/09/22 03:51:47;;;;;;;3.90;3.50;;;;;;;;;;5077727;28;20601;-58
2021/09/22 03:54:13;;;;;;;3.87;3.10;;;;;;;;;;5070276;28;20219;-59
2021/09/22 03:56:40;;;;;;;4.43;3.87;;;;;;;;;;5080514;28;20547;-59
2021/09/22 03:59:06;;;;;;;3.90;3.47;;;;;;;;;;5085692;28;20179;-58
2021/09/22 04:01:32;;;;;;;3.70;3.40;;;;;;;;;;5086958;28;20184;-58
2021/09/22 04:03:58;;;;;;;4.37;3.37;;;;;;;;;;5088294;28;20698;-59
2021/09/22 04:06:24;;;;;;;4.10;3.40;;;;;;;;;;5087576;28;20229;-59
2021/09/22 04:08:50;;;;;;;4.23;3.30;;;;;;;;;;5093886;28;20176;-59
2021/09/22 04:11:17;;;;;;;3.73;3.00;;;;;;;;;;5103781;28;20186;-59
2021/09/22 04:13:43;;;;;;;3.40;3.10;;;;;;;;;;5075021;28;20167;-58
2021/09/22 04:16:09;;;;;;;3.70;3.23;;;;;;;;;;5089151;28;20642;-59
2021/09/22 04:18:36;;;;;;;3.77;3.33;;;;;;;;;;5069587;28;20523;-59
2021/09/22 04:21:02;;;;;;;3.63;3.33;;;;;;;;;;5086825;28;20604;-60
2021/09/22 04:23:29;;;;;;;3.27;2.97;;;;;;;;;;5087250;28;20191;-59
2021/09/22 04:25:55;;;;;;;3.90;3.50;;;;;;;;;;5075553;28;20524;-59
2021/09/22 04:28:21;;;;;;;3.80;3.40;;;;;;;;;;5088438;28;20267;-59
2021/09/22 04:30:47;;;;;;;3.97;3.50;;;;;;;;;;5087518;28;20642;-59
2021/09/22 04:33:14;;;;;;;5.40;5.00;;;;;;;;;;5069020;28;20749;-59
2021/09/22 04:35:40;;;;;;;3.90;3.50;;;;;;;;;;5090142;28;20646;-59
2021/09/22 04:38:06;;;;;;;4.10;3.70;;;;;;;;;;5089868;28;20477;-59
2021/09/22 04:40:33;;;;;;;4.83;4.07;;;;;;;;;;5083237;28;20179;-59
2021/09/22 04:42:59;;;;;;;3.20;2.90;;;;;;;;;;5087148;28;20164;-59
2021/09/22 04:45:26;;;;;;;3.63;3.23;;;;;;;;;;5071213;28;20187;-59
2021/09/22 04:47:52;;;;;;;4.07;3.60;;;;;;;;;;5060316;28;20186;-59
2021/09/22 04:50:19;;;;;;;5.83;3.87;;;;;;;;;;5086274;28;20175;-60
2021/09/22 04:52:45;;;;;;;3.97;3.43;;;;;;;;;;5082678;28;20639;-59
2021/09/22 04:55:11;;;;;;;3.93;3.30;;;;;;;;;;5087420;28;20175;-59
2021/09/22 04:57:39;;;;;;;3.83;3.50;;;;;;;;;;5084726;28;20254;-59
2021/09/22 05:00:05;;;;;;;5.87;4.37;;;;;;;;;;5092175;28;20175;-59
2021/09/22 05:02:31;;;;;;;5.53;5.13;;;;;;;;;;5087496;28;20207;-59
2021/09/22 05:04:57;;;;;;;5.10;4.70;;;;;;;;;;5086229;28;20422;-59
2021/09/22 05:07:23;;;;;;;4.97;4.47;;;;;;;;;;5087156;28;20176;-59
2021/09/22 05:09:49;;;;;;;3.93;3.47;;;;;;;;;;5084229;28;20176;-59
2021/09/22 05:12:15;;;;;;;4.97;4.57;;;;;;;;;;5086846;28;20226;-59
2021/09/22 05:14:42;;;;;;;3.80;3.50;;;;;;;;;;5093380;28;20174;-59
2021/09/22 05:17:08;;;;;;;3.60;3.17;;;;;;;;;;5084032;28;20251;-59
2021/09/22 05:19:34;;;;;;;4.40;4.00;;;;;;;;;;5086644;28;20207;-59
2021/09/22 05:22:00;;;;;;;5.27;4.03;;;;;;;;;;5090761;28;20176;-59
2021/09/22 05:24:26;;;;;;;4.07;3.67;;;;;;;;;;5090974;28;20175;-59
2021/09/22 05:26:52;;;;;;;20.00;3.97;;;;;;;;;;5093545;28;20589;-59
2021/09/22 05:29:18;;;;;;;5.23;4.37;;;;;;;;;;5071190;28;20253;-59
2021/09/22 05:31:44;;;;;;;5.87;4.27;;;;;;;;;;5071879;28;20239;-59
2021/09/22 05:34:11;;;;;;;3.73;3.43;;;;;;;;;;5073352;28;20179;-59
2021/09/22 05:36:37;;;;;;;4.67;3.97;;;;;;;;;;5074176;28;20623;-59
2021/09/22 05:39:04;;;;;;;5.07;3.93;;;;;;;;;;5089164;28;20259;-59
2021/09/22 05:41:30;;;;;;;4.60;4.20;;;;;;;;;;5091396;28;20176;-59
2021/09/22 05:43:56;;;;;;;4.73;4.23;;;;;;;;;;5096795;28;20249;-59
2021/09/22 05:46:22;;;;;;;4.43;4.03;;;;;;;;;;5093318;28;20184;-59
2021/09/22 05:48:48;;;;;;;4.50;4.10;;;;;;;;;;5090346;28;20206;-59
2021/09/22 05:51:15;;;;;;;5.30;4.80;;;;;;;;;;5091533;28;20645;-59
2021/09/22 05:53:43;;;;;;;4.47;3.97;;;;;;;;;;5090790;28;20199;-59
2021/09/22 05:56:10;;;;;;;7.10;4.23;;;;;;;;;;5090729;28;20175;-59
2021/09/22 05:58:36;;;;;;;5.27;3.93;;;;;;;;;;5093202;28;20638;-59
2021/09/22 06:01:02;;;;;;;5.47;3.60;;;;;;;;;;5106316;28;20637;-59
2021/09/22 06:03:28;;;;;;;5.63;4.07;;;;;;;;;;5110771;28;20510;-59
2021/09/22 06:05:54;;;;;;;5.23;4.67;;;;;;;;;;5078958;28;20190;-59
2021/09/22 06:08:20;;;;;;;6.47;4.17;;;;;;;;;;5090747;28;20176;-59
2021/09/22 06:10:46;;;;;;;5.23;4.03;;;;;;;;;;5084868;28;20179;-59
2021/09/22 06:13:12;;;;;;;4.80;4.40;;;;;;;;;;5092902;28;20215;-59
2021/09/22 06:15:40;;;;;;;4.40;4.00;;;;;;;;;;5095109;28;20196;-59
2021/09/22 06:18:06;;;;;;;5.00;4.43;;;;;;;;;;5072910;28;20623;-59
2021/09/22 06:20:32;;;;;;;4.30;3.87;;;;;;;;;;5084788;28;20183;-60
2021/09/22 06:22:58;;;;;;;4.70;4.30;;;;;;;;;;5070065;28;20176;-59
2021/09/22 06:25:25;;;;;;;4.80;4.30;;;;;;;;;;5080413;28;20254;-59
2021/09/22 06:27:51;;;;;;;5.47;4.43;;;;;;;;;;5096713;28;20702;-59
2021/09/22 06:30:17;;;;;;;4.87;4.40;;;;;;;;;;5091721;28;20207;-59
2021/09/22 06:32:43;;;;;;;6.80;4.63;;;;;;;;;;5072294;28;20220;-59
2021/09/22 06:35:10;;;;;;;5.43;4.70;;;;;;;;;;5090824;28;20538;-59
2021/09/22 06:37:37;;;;;;;5.60;4.80;;;;;;;;;;5091052;28;20171;-59
2021/09/22 06:40:04;;;;;;;4.67;4.23;;;;;;;;;;5091892;28;20546;-60
2021/09/22 06:42:30;;;;;;;5.20;4.70;;;;;;;;;;5072319;28;20191;-59
2021/09/22 06:44:56;;;;;;;4.93;4.43;;;;;;;;;;5095484;28;20662;-59
2021/09/22 06:47:22;;;;;;;5.30;4.40;;;;;;;;;;5109546;28;20236;-59
2021/09/22 06:49:48;;;;;;;5.83;5.00;;;;;;;;;;5105206;28;20176;-59
2021/09/22 06:52:14;;;;;;;6.10;5.50;;;;;;;;;;5090828;28;20191;-59
2021/09/22 06:54:40;;;;;;;6.63;4.80;;;;;;;;;;5099057;28;20619;-59
2021/09/22 06:57:06;;;;;;;6.10;5.40;;;;;;;;;;5091050;28;20576;-58
2021/09/22 06:59:32;;;;;;;6.57;5.30;;;;;;;;;;5090103;28;20225;-59
2021/09/22 07:01:59;;;;;;;5.50;5.00;;;;;;;;;;5100068;28;20175;-59
2021/09/22 07:04:25;;;;;;;5.53;4.30;;;;;;;;;;5090902;28;20175;-59
2021/09/22 07:06:51;;;;;;;5.67;5.10;;;;;;;;;;5110701;28;20178;-59
2021/09/22 07:09:17;;;;;;;4.87;4.37;;;;;;;;;;5067369;28;20575;-59
2021/09/22 07:11:43;;;;;;;7.73;5.40;;;;;;;;;;5083316;28;20263;-59
2021/09/22 07:14:09;;;;;;;5.27;4.77;;;;;;;;;;5069278;28;20176;-59
2021/09/22 07:16:35;;;;;;;5.73;5.13;;;;;;;;;;5069621;28;20181;-59
2021/09/22 07:19:01;;;;;;;5.67;5.10;;;;;;;;;;5069405;28;20491;-59
2021/09/22 07:21:31;;;;;;;6.77;5.00;;;;;;;;;;5088914;28;20171;-60
2021/09/22 07:23:57;;;;;;;5.90;5.30;;;;;;;;;;5071550;28;20183;-59
2021/09/22 07:26:24;;;;;;;6.00;5.40;;;;;;;;;;5070940;28;20187;-59
2021/09/22 07:28:50;;;;;;;5.63;5.00;;;;;;;;;;5052842;28;20180;-59
2021/09/22 07:31:17;;;;;;;5.40;4.77;;;;;;;;;;5070005;28;20567;-60
2021/09/22 07:33:44;;;;;;;5.67;4.90;;;;;;;;;;5031584;28;20609;-60
2021/09/22 07:36:10;;;;;;;5.87;5.07;;;;;;;;;;5061944;28;20185;-60
2021/09/22 07:38:36;;;;;;;6.07;5.47;;;;;;;;;;5064244;28;20180;-60
2021/09/22 07:41:03;;;;;;;7.37;5.83;;;;;;;;;;5063565;28;20662;-60
2021/09/22 07:43:29;;;;;;;6.27;5.20;;;;;;;;;;5068463;28;20629;-60
2021/09/22 07:45:55;;;;;;;6.27;5.67;;;;;;;;;;5051559;28;20181;-60
2021/09/22 07:48:22;;;;;;;7.57;5.43;;;;;;;;;;5051411;28;20187;-60
2021/09/22 07:50:48;;;;;;;9.33;5.60;;;;;;;;;;5069702;28;20709;-60
2021/09/22 07:53:16;;;;;;;6.37;5.77;;;;;;;;;;5069084;28;20192;-59
2021/09/22 07:55:42;;;;;;;8.53;5.50;;;;;;;;;;5069206;28;20176;-59
2021/09/22 07:58:08;;;;;;;6.50;5.33;;;;;;;;;;5069493;28;20226;-59
2021/09/22 08:00:34;;;;;;;5.93;5.33;;;;;;;;;;5067998;28;20181;-59
2021/09/22 08:03:00;;;;;;;5.77;5.20;;;;;;;;;;5069365;28;20202;-60
2021/09/22 08:05:27;;;;;;;6.63;6.03;;;;;;;;;;5069034;28;20183;-59
2021/09/22 08:07:53;;;;;;;6.53;5.90;;;;;;;;;;5068491;28;20211;-59
2021/09/22 08:10:19;;;;;;;7.10;5.27;;;;;;;;;;5068234;28;20576;-59
2021/09/22 08:12:46;;;;;;;8.00;6.10;;;;;;;;;;5083643;28;20216;-59
2021/09/22 08:15:13;;;;;;;6.70;6.00;;;;;;;;;;5087297;28;20184;-59
2021/09/22 08:17:39;;;;;;;6.30;5.67;;;;;;;;;;5089488;28;20589;-59
2021/09/22 08:20:06;;;;;;;6.67;5.33;;;;;;;;;;5087185;28;20184;-59
2021/09/22 08:22:32;;;;;;;8.37;6.37;;;;;;;;;;5089275;28;20175;-59
2021/09/22 08:24:59;;;;;;;7.83;6.17;;;;;;;;;;5087009;28;20187;-59
2021/09/22 08:27:25;;;;;;;7.03;5.87;;;;;;;;;;5079250;28;20205;-58
2021/09/22 08:29:51;;;;;;;6.57;5.77;;;;;;;;;;5088507;28;20175;-58
2021/09/22 08:32:17;;;;;;;6.40;5.80;;;;;;;;;;5071078;28;20203;-58
2021/09/22 08:34:43;;;;;;;6.67;5.97;;;;;;;;;;5088125;28;20820;-58
2021/09/22 08:37:09;;;;;;;6.77;6.07;;;;;;;;;;5089413;28;20720;-58
2021/09/22 08:39:36;;;;;;;8.53;6.27;;;;;;;;;;5086046;28;20606;-58
2021/09/22 08:42:03;;;;;;;5.80;5.00;;;;;;;;;;5070273;28;20580;-58
2021/09/22 08:44:29;;;;;;;6.37;5.60;;;;;;;;;;5088209;28;20543;-59
2021/09/22 08:46:56;;;;;;;8.33;6.30;;;;;;;;;;5088741;28;20172;-59
2021/09/22 08:49:22;;;;;;;7.77;6.90;;;;;;;;;;5087275;28;20179;-59
2021/09/22 08:51:48;;;;;;;7.10;6.40;;;;;;;;;;5088805;28;20200;-59
2021/09/22 08:54:15;;;;;;;8.70;7.33;;;;;;;;;;5069512;28;20191;-59
2021/09/22 08:56:41;;;;;;;7.73;6.93;;;;;;;;;;5092428;28;20603;-58
2021/09/22 08:59:08;;;;;;;8.73;7.83;;;;;;;;;;5092253;28;20176;-59
2021/09/22 09:01:34;;;;;;;10.07;8.73;;;;;;;;;;5092218;28;20188;-59
2021/09/22 09:04:20;;;;;;;9.10;6.87;;;;;;;;;;5092502;28;20526;-59
2021/09/22 09:06:47;;;;;;;8.70;6.93;;;;;;;;;;5092679;28;20176;-59
2021/09/22 09:09:14;;;;;;;9.60;6.60;;;;;;;;;;5091264;28;20224;-59
2021/09/22 09:11:42;;;;;;;7.90;7.10;;;;;;;;;;5086085;28;20224;-59
2021/09/22 09:14:09;;;;;;;10.30;7.10;;;;;;;;;;5079465;28;20179;-59
2021/09/22 09:16:40;;;;;;;9.17;5.97;;;;;;;;;;5091742;28;20178;-59
2021/09/22 09:19:12;;;;;;;8.17;6.37;;;;;;;;;;5092401;28;20176;-59
2021/09/22 09:21:57;;;;;;;8.70;6.70;;;;;;;;;;5018099;28;20181;-59
2021/09/22 09:24:32;;;;;;;10.07;7.07;;;;;;;;;;5052940;28;20483;-59
2021/09/22 09:26:59;;;;;;;8.43;6.80;;;;;;;;;;5071569;28;20172;-59
2021/09/22 09:29:25;;;;;;;8.67;7.53;;;;;;;;;;5072713;28;20172;-59
2021/09/22 09:31:52;;;;;;;8.63;7.63;;;;;;;;;;5058844;28;20205;-59
2021/09/22 09:34:18;;;;;;;11.20;8.30;;;;;;;;;;5052465;28;20184;-60
2021/09/22 09:36:47;;;;;;;9.47;8.13;;;;;;;;;;5071794;28;20642;-59
2021/09/22 09:39:23;;;;;;;12.17;9.13;;;;;;;;;;5070815;28;20263;-59
2021/09/22 09:41:51;;;;;;;13.10;8.73;;;;;;;;;;5091646;28;20201;-59
2021/09/22 09:44:18;;;;;;;10.37;8.37;;;;;;;;;;5090081;28;20634;-59
2021/09/22 09:46:45;;;;;;;11.87;9.70;;;;;;;;;;5072010;28;20574;-59
2021/09/22 09:49:15;;;;;;;10.23;8.70;;;;;;;;;;5071390;28;20267;-59
2021/09/22 09:51:45;;;;;;;11.90;9.07;;;;;;;;;;5051304;28;20177;-59
2021/09/22 09:54:16;;;;;;;10.07;8.20;;;;;;;;;;5063742;28;20260;-59
2021/09/22 09:56:43;;;;;;;10.73;8.40;;;;;;;;;;5071104;28;20183;-59
2021/09/22 09:59:09;;;;;;;12.13;8.50;;;;;;;;;;5072416;28;20533;-59
2021/09/22 10:01:39;;;;;;;11.13;8.77;;;;;;;;;;5075282;28;20243;-59
2021/09/22 10:04:06;;;;;;;9.73;8.73;;;;;;;;;;5090969;28;20172;-59
2021/09/22 10:06:32;;;;;;;9.53;7.67;;;;;;;;;;5070892;28;20185;-59
2021/09/22 10:08:59;;;;;;;10.33;8.93;;;;;;;;;;5070785;28;20180;-59
2021/09/22 10:11:25;;;;;;;10.70;8.40;;;;;;;;;;5072175;28;20223;-59
2021/09/22 10:13:52;;;;;;;12.90;9.10;;;;;;;;;;5091156;28;20192;-59
2021/09/22 10:16:19;;;;;;;9.37;8.40;;;;;;;;;;5088930;28;20665;-59
2021/09/22 10:18:48;;;;;;;10.03;8.97;;;;;;;;;;5072717;28;20180;-59
2021/09/22 10:21:15;;;;;;;9.53;7.50;;;;;;;;;;5090549;28;20192;-59
2021/09/22 10:23:43;;;;;;;9.63;8.37;;;;;;;;;;5090440;28;20215;-59
2021/09/22 10:26:09;;;;;;;15.97;8.57;;;;;;;;;;5090176;28;20191;-59
2021/09/22 10:28:41;;;;;;;8.87;7.97;;;;;;;;;;5090805;28;20225;-59
2021/09/22 10:31:14;;;;;;;10.77;8.20;;;;;;;;;;5082565;28;20184;-59
2021/09/22 10:33:43;;;;;;;10.30;7.97;;;;;;;;;;5091118;28;20238;-59
2021/09/22 10:36:10;;;;;;;10.73;8.63;;;;;;;;;;5090500;28;20667;-59
2021/09/22 10:38:41;;;;;;;9.97;8.40;;;;;;;;;;5089785;28;20178;-59
2021/09/22 10:41:07;;;;;;;9.40;7.70;;;;;;;;;;5089404;28;20186;-59
2021/09/22 10:43:37;;;;;;;10.70;8.60;;;;;;;;;;5072377;28;20172;-59
2021/09/22 10:46:06;;;;;;;12.70;9.73;;;;;;;;;;5089893;28;20175;-59
2021/09/22 10:48:33;;;;;;;10.37;7.67;;;;;;;;;;5090282;28;20249;-60
2021/09/22 10:51:04;;;;;;;11.97;7.87;;;;;;;;;;5090054;28;20176;-59
2021/09/22 10:53:33;;;;;;;11.43;9.30;;;;;;;;;;5089495;28;20670;-59
2021/09/22 10:56:08;;;;;;;9.53;8.30;;;;;;;;;;5089536;28;20189;-60
2021/09/22 10:58:55;;;;;;;10.60;8.90;;;;;;;;;;5090342;28;20187;-59
2021/09/22 11:01:33;;;;;;;11.33;10.03;;;;;;;;;;5090452;28;20718;-59
2021/09/22 11:03:59;;;;;;;12.77;9.90;;;;;;;;;;5071784;28;20179;-59
2021/09/22 11:06:47;;;;;;;10.37;8.43;;;;;;;;;;5071704;28;20635;-60
2021/09/22 11:09:27;;;;;;;11.53;8.80;;;;;;;;;;5089030;28;20232;-59
2021/09/22 11:11:57;;;;;;;9.80;8.40;;;;;;;;;;5089145;28;20242;-59
2021/09/22 11:14:42;;;;;;;9.97;8.73;;;;;;;;;;5088792;28;20176;-58
2021/09/22 11:17:13;;;;;;;10.67;8.17;;;;;;;;;;5088434;28;20264;-59
2021/09/22 11:19:43;;;;;;;11.73;9.53;;;;;;;;;;5072402;28;20177;-59
2021/09/22 11:22:14;;;;;;;10.60;8.82;;;;;;;;;;5065666;28;20426;-59
2021/09/22 11:24:41;;;;;;;11.30;8.23;;;;;;;;;;5088204;28;20172;-60
2021/09/22 11:27:17;;;;;;;12.83;8.57;;;;;;;;;;5088868;28;20215;-59
2021/09/22 11:29:48;;;;;;;12.70;8.53;;;;;;;;;;5080624;28;20270;-59
2021/09/22 11:32:31;;;;;;;10.73;8.87;;;;;;;;;;5089352;28;20558;-59
2021/09/22 11:34:58;;;;;;;10.00;7.83;;;;;;;;;;5091208;28;20223;-59
2021/09/22 11:37:29;;;;;;;12.50;10.30;;;;;;;;;;5098986;28;20207;-59
2021/09/22 11:39:55;;;;;;;10.10;8.83;;;;;;;;;;5088060;28;20190;-60
2021/09/22 11:42:23;;;;;;;8.90;7.83;;;;;;;;;;5089617;28;20234;-59
2021/09/22 11:44:54;;;;;;;9.53;8.27;;;;;;;;;;5087994;28;20191;-59
2021/09/22 11:47:20;;;;;;;9.67;7.90;;;;;;;;;;5088801;28;20175;-59
2021/09/22 11:49:46;;;;;;;10.00;9.00;;;;;;;;;;5094163;28;20195;-59
2021/09/22 11:52:14;;;;;;;11.07;7.97;;;;;;;;;;5071857;28;20564;-57
2021/09/22 11:54:45;;;;;;;12.17;10.57;;;;;;;;;;5067846;28;20659;-58
2021/09/22 11:57:12;;;;;;;16.50;10.70;;;;;;;;;;5072995;28;20581;-58
2021/09/22 11:59:39;;;;;;;15.20;12.80;;;;;;;;;;5088717;28;20555;-58
2021/09/22 12:02:05;;;;;;;14.27;11.23;;;;;;;;;;5088167;28;20412;-58
2021/09/22 12:04:39;;;;;;;11.77;9.97;;;;;;;;;;5069650;28;20186;-59
2021/09/22 12:07:06;;;;;;;11.73;10.53;;;;;;;;;;5089258;28;20642;-60
2021/09/22 12:09:39;;;;;;;15.37;9.90;;;;;;;;;;5070308;28;20278;-59
2021/09/22 12:12:07;;;;;;;9.57;8.30;;;;;;;;;;5088176;28;20219;-59
2021/09/22 12:14:33;;;;;;;11.20;8.47;;;;;;;;;;5070295;28;20180;-59
2021/09/22 12:17:07;;;;;;;9.53;7.80;;;;;;;;;;5079014;28;20241;-59
2021/09/22 12:19:35;;;;;;;9.63;7.20;;;;;;;;;;5084764;28;20248;-59
2021/09/22 12:22:02;;;;;;;7.67;6.50;;;;;;;;;;5072939;28;20180;-59
2021/09/22 12:24:33;;;;;;;9.77;7.53;;;;;;;;;;5086932;28;20242;-59
2021/09/22 12:27:00;;;;;;;7.60;6.57;;;;;;;;;;5088432;28;20180;-59
2021/09/22 12:29:26;;;;;;;7.10;6.10;;;;;;;;;;5072568;28;20184;-59
2021/09/22 12:31:53;;;;;;;9.70;6.43;;;;;;;;;;5088819;28;20226;-59
2021/09/22 12:34:19;;;;;;;6.77;5.50;;;;;;;;;;5091796;28;20607;-59
2021/09/22 12:36:46;;;;;;;6.17;5.57;;;;;;;;;;5092195;28;20620;-59
2021/09/22 12:39:17;;;;;;;6.37;5.53;;;;;;;;;;5085461;28;20175;-59
2021/09/22 12:41:59;;;;;;;5.67;4.83;;;;;;;;;;5090317;28;20171;-59
2021/09/22 12:44:25;;;;;;;7.13;6.00;;;;;;;;;;5062892;28;20241;-59
2021/09/22 12:46:54;;;;;;;5.77;5.10;;;;;;;;;;5064773;28;20192;-59
2021/09/22 12:49:22;;;;;;;7.17;5.27;;;;;;;;;;5084630;28;20180;-59
2021/09/22 12:51:50;;;;;;;7.00;5.00;;;;;;;;;;5092486;28;20184;-59
2021/09/22 12:54:17;;;;;;;5.27;4.77;;;;;;;;;;5074827;28;20172;-59
2021/09/22 12:56:43;;;;;;;6.13;5.37;;;;;;;;;;5091951;28;20175;-59
2021/09/22 12:59:27;;;;;;;8.30;4.80;;;;;;;;;;5109981;28;20164;-59
2021/09/22 13:01:54;;;;;;;7.33;6.30;;;;;;;;;;5092197;28;20527;-59
2021/09/22 13:04:31;;;;;;;9.03;5.30;;;;;;;;;;5073949;28;20786;-59
2021/09/22 13:06:58;;;;;;;6.30;4.83;;;;;;;;;;5092191;28;20225;-59
2021/09/22 13:09:32;;;;;;;7.03;5.07;;;;;;;;;;5090545;28;20176;-59
2021/09/22 13:11:59;;;;;;;5.50;4.40;;;;;;;;;;5086840;28;20243;-60
2021/09/22 13:14:35;;;;;;;6.17;4.70;;;;;;;;;;5071202;28;20747;-59
2021/09/22 13:17:01;;;;;;;5.43;4.87;;;;;;;;;;5071775;28;20184;-59
2021/09/22 13:19:29;;;;;;;6.73;5.00;;;;;;;;;;5068183;28;20658;-59
2021/09/22 13:21:56;;;;;;;7.23;5.10;;;;;;;;;;5091905;28;20225;-59
2021/09/22 13:24:23;;;;;;;6.33;4.40;;;;;;;;;;5090897;28;20168;-60
2021/09/22 13:26:50;;;;;;;5.83;5.23;;;;;;;;;;5091862;28;20175;-59
2021/09/22 13:29:18;;;;;;;6.77;5.20;;;;;;;;;;5074188;28;20634;-59
2021/09/22 13:31:56;;;;;;;6.67;4.93;;;;;;;;;;5089880;28;20192;-59
2021/09/22 13:34:27;;;;;;;8.77;5.47;;;;;;;;;;5073025;28;20183;-60
2021/09/22 13:36:53;;;;;;;5.07;4.57;;;;;;;;;;5090388;28;20164;-59
2021/09/22 13:39:19;;;;;;;7.10;5.40;;;;;;;;;;5072221;28;20180;-59
2021/09/22 13:41:46;;;;;;;5.47;4.80;;;;;;;;;;5069473;28;20184;-59
2021/09/22 13:44:13;;;;;;;5.20;4.70;;;;;;;;;;5077022;28;20635;-59
2021/09/22 13:46:45;;;;;;;5.63;4.67;;;;;;;;;;5081179;28;20190;-59
2021/09/22 13:49:12;;;;;;;5.43;4.63;;;;;;;;;;5088743;28;20180;-59
2021/09/22 13:51:42;;;;;;;5.83;4.43;;;;;;;;;;5089095;28;20184;-59
2021/09/22 13:54:08;;;;;;;5.60;4.57;;;;;;;;;;5090693;28;20168;-59
2021/09/22 13:56:35;;;;;;;6.60;5.90;;;;;;;;;;5090403;28;20236;-59
2021/09/22 13:59:01;;;;;;;7.60;6.53;;;;;;;;;;5091416;28;20305;-59
2021/09/22 14:01:28;;;;;;;5.70;5.20;;;;;;;;;;5078217;28;20199;-59
2021/09/22 14:03:54;;;;;;;5.30;4.80;;;;;;;;;;5066605;28;20183;-59
2021/09/22 14:06:21;;;;;;;5.57;4.93;;;;;;;;;;5090930;28;20313;-59
2021/09/22 14:08:47;;;;;;;6.20;5.60;;;;;;;;;;5088470;28;20206;-59
2021/09/22 14:11:13;;;;;;;6.07;5.47;;;;;;;;;;5089306;28;20184;-59
2021/09/22 14:13:39;;;;;;;6.07;5.13;;;;;;;;;;5072546;28;20290;-59
2021/09/22 14:16:06;;;;;;;7.17;5.17;;;;;;;;;;5090643;28;20168;-59
2021/09/22 14:18:32;;;;;;;8.80;5.67;;;;;;;;;;5090786;28;20180;-59
2021/09/22 14:20:58;;;;;;;4.97;4.47;;;;;;;;;;5090544;28;20641;-59
2021/09/22 14:23:25;;;;;;;6.53;5.87;;;;;;;;;;5072059;28;20222;-59
2021/09/22 14:25:56;;;;;;;7.63;5.53;;;;;;;;;;5090719;28;20179;-59
2021/09/22 14:28:25;;;;;;;5.97;5.37;;;;;;;;;;5091202;28;20168;-59
2021/09/22 14:30:51;;;;;;;6.40;5.13;;;;;;;;;;5090340;28;20188;-59
2021/09/22 14:33:17;;;;;;;6.03;5.13;;;;;;;;;;5091193;28;20199;-59
2021/09/22 14:35:44;;;;;;;7.50;5.85;;;;;;;;;;5080906;28;20414;-59
2021/09/22 14:38:11;;;;;;;7.93;6.73;;;;;;;;;;5084622;28;20187;-60
2021/09/22 14:40:38;;;;;;;8.90;6.77;;;;;;;;;;5071714;28;20179;-60
2021/09/22 14:43:04;;;;;;;6.47;5.80;;;;;;;;;;5088827;28;20180;-59